Time;durP1;ratioP1;P1;durP2;ratioP2;P2;SDS_P1;SDS_P2;PMS_P1;PMS_P2;Temp;Humidity;BMP_temperature;BMP_pressure;BME280_temperature;BME280_humidity;BME280_pressure;Samples;Min_cycle;Max_cycle;Signal;HPM_P1;HPM_P2
2023/11/11 00:00:08;;;;;;;4.50;1.50;;;8.60;82.10;;;;;;4884846;29;20080;-93
2023/11/11 00:02:36;;;;;;;4.83;1.53;;;8.60;81.70;;;;;;4884814;29;20052;-93
2023/11/11 00:05:03;;;;;;;5.97;1.70;;;8.60;81.80;;;;;;4884697;29;20080;-92
2023/11/11 00:07:31;;;;;;;3.80;1.30;;;8.60;81.90;;;;;;4884781;29;20049;-93
2023/11/11 00:09:58;;;;;;;4.70;1.67;;;8.70;81.50;;;;;;4884665;29;20053;-93
2023/11/11 00:12:25;;;;;;;5.40;1.75;;;8.80;81.30;;;;;;4884400;29;20081;-93
2023/11/11 00:14:53;;;;;;;4.67;1.60;;;8.90;81.10;;;;;;4884602;29;20052;-93
2023/11/11 00:17:20;;;;;;;4.03;1.40;;;8.90;81.10;;;;;;4884462;29;20053;-93
2023/11/11 00:19:47;;;;;;;4.65;1.70;;;8.90;80.90;;;;;;4884612;29;20460;-93
2023/11/11 00:22:14;;;;;;;4.72;1.73;;;8.90;80.90;;;;;;4881684;29;20397;-93
2023/11/11 00:24:42;;;;;;;6.15;1.90;;;8.90;80.80;;;;;;4850355;29;20053;-93
2023/11/11 00:27:11;;;;;;;6.50;2.17;;;9.00;80.70;;;;;;4866019;29;20423;-93
2023/11/11 00:29:40;;;;;;;5.40;1.88;;;9.00;80.60;;;;;;4865468;29;20081;-93
2023/11/11 00:32:08;;;;;;;7.28;1.83;;;9.10;80.60;;;;;;4850179;29;20135;-92
2023/11/11 00:34:35;;;;;;;5.40;1.70;;;9.10;80.50;;;;;;4865481;29;20056;-93
2023/11/11 00:37:03;;;;;;;5.70;1.75;;;9.00;80.70;;;;;;4865493;29;20111;-92
2023/11/11 00:39:33;;;;;;;5.27;1.77;;;9.00;81.00;;;;;;4850387;29;20096;-92
2023/11/11 00:42:01;;;;;;;6.18;2.20;;;8.90;81.10;;;;;;4850179;29;20136;-93
2023/11/11 00:44:28;;;;;;;6.22;1.80;;;8.90;81.20;;;;;;4870229;29;20087;-93
2023/11/11 00:46:55;;;;;;;4.88;1.52;;;9.00;81.20;;;;;;4884002;29;20049;-93
2023/11/11 00:49:22;;;;;;;4.45;1.50;;;8.90;81.00;;;;;;4874376;29;20571;-93
2023/11/11 00:51:49;;;;;;;5.23;1.57;;;8.90;80.90;;;;;;4865219;29;20127;-93
2023/11/11 00:54:16;;;;;;;4.85;1.83;;;9.00;81.10;;;;;;4880470;29;20037;-93
2023/11/11 00:56:43;;;;;;;5.00;1.80;;;9.00;81.00;;;;;;4883310;29;20411;-93
2023/11/11 00:59:10;;;;;;;6.05;1.80;;;9.10;80.60;;;;;;4880950;29;20100;-92
2023/11/11 01:01:37;;;;;;;4.72;1.80;;;9.00;80.60;;;;;;4865173;29;20603;-93
2023/11/11 01:04:05;;;;;;;5.33;1.60;;;9.10;80.50;;;;;;4865165;29;20049;-93
2023/11/11 01:06:33;;;;;;;4.63;1.60;;;9.00;80.70;;;;;;4864945;29;20059;-93
2023/11/11 01:09:00;;;;;;;5.32;1.30;;;9.00;80.90;;;;;;4850147;29;20045;-92
2023/11/11 01:11:28;;;;;;;5.82;1.92;;;9.00;80.90;;;;;;4849950;29;20052;-92
2023/11/11 01:13:55;;;;;;;5.20;1.70;;;9.00;80.80;;;;;;4864945;29;20097;-93
2023/11/11 01:16:22;;;;;;;4.50;1.60;;;9.00;80.80;;;;;;4864836;29;20071;-92
2023/11/11 01:18:49;;;;;;;6.03;2.10;;;9.00;81.00;;;;;;4869799;29;20086;-93
2023/11/11 01:21:17;;;;;;;5.20;1.73;;;9.00;80.70;;;;;;4868653;29;20049;-93
2023/11/11 01:23:45;;;;;;;5.70;2.10;;;9.00;80.80;;;;;;4849557;29;20081;-93
2023/11/11 01:26:12;;;;;;;7.10;2.40;;;9.10;80.70;;;;;;4864852;29;20049;-92
2023/11/11 01:28:40;;;;;;;7.83;2.60;;;9.10;80.70;;;;;;4878041;29;20051;-93
2023/11/11 01:31:07;;;;;;;6.88;2.53;;;9.00;80.90;;;;;;4883058;29;20136;-93
2023/11/11 01:33:34;;;;;;;7.03;2.58;;;9.10;80.90;;;;;;4882875;29;20068;-93
2023/11/11 01:36:04;;;;;;;7.40;2.60;;;9.00;81.00;;;;;;4864715;29;20049;-92
2023/11/11 01:38:31;;;;;;;8.05;3.10;;;9.10;81.00;;;;;;4849283;29;20049;-93
2023/11/11 01:40:58;;;;;;;7.17;2.60;;;9.10;81.10;;;;;;4849344;29;20049;-94
2023/11/11 01:43:25;;;;;;;7.97;2.88;;;9.20;80.90;;;;;;4849219;29;20049;-93
2023/11/11 01:45:58;;;;;;;9.68;3.70;;;9.30;80.80;;;;;;4863394;29;20053;-93
2023/11/11 01:48:26;;;;;;;9.23;3.88;;;9.30;80.50;;;;;;4864380;29;20048;-93
2023/11/11 01:50:54;;;;;;;11.70;4.00;;;9.20;80.50;;;;;;4864471;29;20116;-93
2023/11/11 01:53:22;;;;;;;9.77;4.20;;;9.20;80.90;;;;;;4864182;29;20045;-93
2023/11/11 01:55:49;;;;;;;9.18;4.55;;;9.10;80.90;;;;;;4864390;29;20041;-93
2023/11/11 01:58:17;;;;;;;12.07;6.00;;;9.10;81.00;;;;;;4864267;29;20049;-93
2023/11/11 02:00:44;;;;;;;14.18;7.60;;;9.10;81.00;;;;;;4864315;29;20053;-93
2023/11/11 02:03:13;;;;;;;14.15;7.93;;;9.10;81.20;;;;;;4870128;29;20058;-92
2023/11/11 02:05:41;;;;;;;15.20;7.90;;;9.10;81.20;;;;;;4855546;29;20048;-92
2023/11/11 02:08:08;;;;;;;13.82;7.40;;;9.10;81.10;;;;;;4882210;29;20064;-92
2023/11/11 02:10:36;;;;;;;12.45;6.55;;;9.30;81.10;;;;;;4870268;29;20483;-92
2023/11/11 02:13:03;;;;;;;12.25;6.15;;;9.30;80.80;;;;;;4869926;29;20049;-92
2023/11/11 02:15:30;;;;;;;11.82;5.20;;;9.30;80.70;;;;;;4879368;29;20060;-92
2023/11/11 02:18:03;;;;;;;10.93;5.63;;;9.30;81.00;;;;;;4882662;29;20533;-93
2023/11/11 02:20:33;;;;;;;10.30;5.55;;;9.40;80.90;;;;;;4882301;29;20079;-92
2023/11/11 02:23:01;;;;;;;10.40;5.47;;;9.30;81.00;;;;;;4874570;29;20055;-92
2023/11/11 02:25:29;;;;;;;10.60;5.35;;;9.30;80.90;;;;;;4874423;29;20060;-92
2023/11/11 02:27:57;;;;;;;11.15;5.18;;;9.30;80.90;;;;;;4863783;29;20531;-93
2023/11/11 02:30:25;;;;;;;9.87;5.43;;;9.30;81.10;;;;;;4866383;29;20052;-92
2023/11/11 02:32:52;;;;;;;11.23;5.70;;;9.30;81.30;;;;;;4863682;29;20056;-93
2023/11/11 02:35:19;;;;;;;10.98;5.95;;;9.30;81.30;;;;;;4861946;29;20092;-93
2023/11/11 02:37:46;;;;;;;11.93;6.25;;;9.30;81.30;;;;;;4882364;29;20048;-93
2023/11/11 02:40:13;;;;;;;10.07;5.40;;;9.30;81.30;;;;;;4879413;29;20105;-92
2023/11/11 02:42:42;;;;;;;12.00;5.57;;;9.40;81.30;;;;;;4863760;29;20144;-93
2023/11/11 02:45:11;;;;;;;13.52;6.40;;;9.40;81.30;;;;;;4866450;29;20184;-93
2023/11/11 02:47:38;;;;;;;15.10;5.53;;;9.40;81.30;;;;;;4882372;29;20115;-93
2023/11/11 02:50:06;;;;;;;12.90;6.43;;;9.40;81.20;;;;;;4882323;29;20414;-93
2023/11/11 02:52:33;;;;;;;9.48;4.80;;;9.30;81.30;;;;;;4868363;29;20105;-93
2023/11/11 02:55:00;;;;;;;11.77;4.90;;;9.20;81.20;;;;;;4863720;29;20084;-93
2023/11/11 02:57:28;;;;;;;8.50;4.32;;;9.20;81.50;;;;;;4848398;29;20056;-93
2023/11/11 02:59:55;;;;;;;8.85;4.32;;;9.20;81.40;;;;;;4863833;29;20504;-93
2023/11/11 03:02:24;;;;;;;8.57;3.83;;;9.20;81.30;;;;;;4863529;29;20102;-93
2023/11/11 03:04:51;;;;;;;8.75;3.97;;;9.20;81.10;;;;;;4863572;29;20063;-93
2023/11/11 03:07:18;;;;;;;8.93;3.93;;;9.20;81.00;;;;;;4863480;29;20116;-93
2023/11/11 03:09:45;;;;;;;9.07;4.30;;;9.20;81.00;;;;;;4863538;29;20053;-93
2023/11/11 03:12:13;;;;;;;9.57;4.43;;;9.00;81.20;;;;;;4848294;29;20523;-92
2023/11/11 03:14:40;;;;;;;10.10;4.60;;;8.90;81.60;;;;;;4863289;29;20089;-93
2023/11/11 03:17:08;;;;;;;9.63;4.47;;;8.80;82.00;;;;;;4863324;29;20053;-93
2023/11/11 03:19:35;;;;;;;9.67;5.00;;;8.80;82.10;;;;;;4869209;29;20037;-93
2023/11/11 03:22:03;;;;;;;10.05;4.55;;;9.00;82.00;;;;;;4885303;29;20139;-93
2023/11/11 03:24:31;;;;;;;8.82;4.35;;;9.10;81.70;;;;;;4885423;29;20119;-93
2023/11/11 03:26:58;;;;;;;11.07;5.10;;;9.10;81.30;;;;;;4885418;29;20045;-92
2023/11/11 03:29:25;;;;;;;9.70;4.65;;;9.20;81.10;;;;;;4885326;29;20407;-93
2023/11/11 03:31:52;;;;;;;8.63;4.20;;;9.20;81.00;;;;;;4885164;29;20056;-92
2023/11/11 03:34:19;;;;;;;8.57;4.28;;;9.20;81.00;;;;;;4885055;29;20507;-92
2023/11/11 03:36:46;;;;;;;9.73;4.05;;;9.20;80.80;;;;;;4885731;29;20076;-93
2023/11/11 03:39:14;;;;;;;9.10;4.43;;;9.20;80.70;;;;;;4885374;29;20049;-93
2023/11/11 03:41:41;;;;;;;7.00;3.15;;;9.20;80.80;;;;;;4885008;29;20045;-93
2023/11/11 03:44:11;;;;;;;8.00;3.40;;;9.20;80.60;;;;;;4885287;29;20095;-93
2023/11/11 03:46:38;;;;;;;8.40;3.83;;;9.30;80.50;;;;;;4885234;29;20056;-92
2023/11/11 03:49:05;;;;;;;9.00;4.35;;;9.30;80.60;;;;;;4885400;29;20052;-92
2023/11/11 03:51:32;;;;;;;8.40;3.90;;;9.20;80.60;;;;;;4884937;29;20049;-92
2023/11/11 03:54:00;;;;;;;7.25;3.50;;;9.10;80.70;;;;;;4884949;29;20052;-92
2023/11/11 03:56:27;;;;;;;6.60;2.50;;;9.10;81.00;;;;;;4885072;29;20052;-92
2023/11/11 03:58:54;;;;;;;7.25;3.22;;;9.10;80.80;;;;;;4851129;29;20041;-92
2023/11/11 04:01:21;;;;;;;6.70;2.67;;;9.00;80.90;;;;;;4866142;29;20049;-93
2023/11/11 04:03:48;;;;;;;7.35;2.83;;;9.00;80.90;;;;;;4866759;29;20147;-93
2023/11/11 04:06:16;;;;;;;6.97;2.88;;;9.10;80.70;;;;;;4872784;29;20116;-93
2023/11/11 04:08:43;;;;;;;6.77;2.70;;;9.00;81.00;;;;;;4884658;29;20149;-92
2023/11/11 04:11:10;;;;;;;6.45;2.67;;;9.00;81.00;;;;;;4884534;29;20408;-93
2023/11/11 04:13:41;;;;;;;6.57;2.42;;;9.00;81.10;;;;;;4884724;29;20049;-94
2023/11/11 04:16:09;;;;;;;5.53;2.10;;;9.00;81.00;;;;;;4884726;29;20067;-93
2023/11/11 04:18:38;;;;;;;5.60;2.28;;;9.10;80.90;;;;;;4869198;29;20130;-93
2023/11/11 04:21:05;;;;;;;6.07;2.30;;;9.00;80.90;;;;;;4884362;29;20048;-93
2023/11/11 04:23:33;;;;;;;5.47;1.90;;;9.00;81.00;;;;;;4865833;29;20068;-93
2023/11/11 04:26:03;;;;;;;5.65;1.95;;;9.00;80.80;;;;;;4865885;29;20080;-93
2023/11/11 04:28:30;;;;;;;6.78;2.25;;;9.10;80.70;;;;;;4865906;29;20049;-93
2023/11/11 04:30:57;;;;;;;6.80;2.20;;;9.10;80.50;;;;;;4865419;29;20057;-93
2023/11/11 04:33:24;;;;;;;6.13;1.80;;;9.00;80.70;;;;;;4864929;29;20049;-93
2023/11/11 04:35:52;;;;;;;6.93;2.15;;;9.00;80.70;;;;;;4865470;29;20052;-93
2023/11/11 04:38:20;;;;;;;6.00;2.38;;;9.10;80.60;;;;;;4865520;29;20143;-93
2023/11/11 04:40:49;;;;;;;6.97;2.40;;;9.20;80.40;;;;;;4865552;29;20431;-92
2023/11/11 04:43:18;;;;;;;5.40;1.98;;;9.10;80.40;;;;;;4865410;29;20045;-93
2023/11/11 04:45:46;;;;;;;7.43;2.47;;;9.10;80.70;;;;;;4865581;29;20064;-92
2023/11/11 04:48:13;;;;;;;6.30;2.38;;;9.20;80.60;;;;;;4865354;29;20063;-92
2023/11/11 04:50:40;;;;;;;6.50;2.90;;;9.20;80.50;;;;;;4865460;29;20089;-92
2023/11/11 04:53:07;;;;;;;6.57;2.80;;;9.20;80.40;;;;;;4865150;29;20053;-92
2023/11/11 04:55:36;;;;;;;6.75;2.75;;;9.20;80.40;;;;;;4865468;29;20056;-92
2023/11/11 04:58:07;;;;;;;7.77;2.73;;;9.20;80.20;;;;;;4850938;29;20057;-92
2023/11/11 05:00:34;;;;;;;7.15;2.80;;;9.20;80.40;;;;;;4884093;29;20052;-92
2023/11/11 05:03:02;;;;;;;7.50;3.17;;;9.20;80.50;;;;;;4883726;29;20056;-92
2023/11/11 05:05:31;;;;;;;7.75;3.55;;;9.20;80.60;;;;;;4883624;29;20056;-92
2023/11/11 05:07:58;;;;;;;7.80;3.55;;;9.30;80.50;;;;;;4883515;29;20126;-92
2023/11/11 05:10:28;;;;;;;8.50;3.87;;;9.20;80.60;;;;;;4883616;29;20499;-92
2023/11/11 05:12:55;;;;;;;9.43;4.22;;;9.20;80.70;;;;;;4883331;29;20044;-92
2023/11/11 05:15:24;;;;;;;8.85;4.18;;;9.20;80.70;;;;;;4883366;29;20052;-92
2023/11/11 05:17:52;;;;;;;10.07;5.18;;;9.20;80.50;;;;;;4883250;29;20052;-92
2023/11/11 05:20:19;;;;;;;10.68;5.07;;;9.20;80.30;;;;;;4868179;29;20076;-92
2023/11/11 05:22:46;;;;;;;12.03;4.83;;;9.20;80.70;;;;;;4883380;29;20602;-92
2023/11/11 05:25:13;;;;;;;10.15;4.93;;;9.20;80.60;;;;;;4883240;29;20063;-92
2023/11/11 05:27:41;;;;;;;9.63;4.40;;;9.20;80.90;;;;;;4883394;29;20056;-92
2023/11/11 05:30:08;;;;;;;11.77;4.80;;;9.10;81.00;;;;;;4883226;29;20045;-92
2023/11/11 05:32:36;;;;;;;10.43;4.53;;;9.20;81.00;;;;;;4883161;29;20537;-93
2023/11/11 05:35:04;;;;;;;10.40;4.23;;;9.20;81.20;;;;;;4874243;29;20049;-92
2023/11/11 05:37:31;;;;;;;11.07;5.07;;;9.20;81.10;;;;;;4864801;29;20534;-92
2023/11/11 05:40:06;;;;;;;11.60;4.82;;;9.20;81.20;;;;;;4864621;29;20147;-92
2023/11/11 05:42:34;;;;;;;8.77;4.30;;;9.20;81.10;;;;;;4864280;29;20049;-94
2023/11/11 05:45:01;;;;;;;9.68;3.90;;;9.10;80.90;;;;;;4864410;29;20083;-93
2023/11/11 05:47:28;;;;;;;10.57;4.30;;;9.10;80.80;;;;;;4865409;29;20514;-91
2023/11/11 05:49:55;;;;;;;9.10;3.92;;;9.20;80.70;;;;;;4870216;29;20059;-92
2023/11/11 05:52:24;;;;;;;10.98;4.20;;;9.40;80.30;;;;;;4865523;29;20055;-92
2023/11/11 05:54:51;;;;;;;10.13;4.20;;;9.40;80.30;;;;;;4864267;29;20049;-92
2023/11/11 05:57:19;;;;;;;10.10;3.92;;;9.40;80.30;;;;;;4864500;29;20057;-91
2023/11/11 05:59:46;;;;;;;7.93;3.50;;;9.30;80.30;;;;;;4864495;29;20508;-92
2023/11/11 06:02:14;;;;;;;7.95;3.85;;;9.40;80.10;;;;;;4864315;29;20049;-92
2023/11/11 06:04:41;;;;;;;8.52;3.22;;;9.40;79.90;;;;;;4864373;29;20049;-92
2023/11/11 06:07:08;;;;;;;9.55;4.20;;;9.30;80.20;;;;;;4864124;29;20052;-92
2023/11/11 06:09:35;;;;;;;8.45;3.75;;;9.40;80.30;;;;;;4864356;29;20419;-92
2023/11/11 06:12:03;;;;;;;8.47;3.77;;;9.40;80.40;;;;;;4864119;29;20143;-92
2023/11/11 06:14:30;;;;;;;8.15;3.63;;;9.40;80.30;;;;;;4864024;29;20060;-92
2023/11/11 06:16:57;;;;;;;10.60;4.40;;;9.40;80.30;;;;;;4864875;29;20060;-92
2023/11/11 06:19:26;;;;;;;9.75;4.13;;;9.40;80.40;;;;;;4849023;29;20097;-92
2023/11/11 06:22:04;;;;;;;11.48;4.07;;;9.40;80.40;;;;;;4864304;29;20045;-92
2023/11/11 06:24:31;;;;;;;8.53;4.07;;;9.40;80.50;;;;;;4864306;29;20113;-92
2023/11/11 06:26:59;;;;;;;10.65;3.97;;;9.40;80.60;;;;;;4864018;29;20111;-93
2023/11/11 06:29:26;;;;;;;9.07;4.20;;;9.30;80.60;;;;;;4864121;29;20053;-92
2023/11/11 06:31:53;;;;;;;9.68;4.70;;;9.30;80.90;;;;;;4864183;29;20548;-91
2023/11/11 06:34:20;;;;;;;8.93;4.20;;;9.20;80.90;;;;;;4864394;29;20055;-91
2023/11/11 06:36:47;;;;;;;11.00;4.87;;;9.40;80.90;;;;;;4849136;29;20512;-92
2023/11/11 06:39:14;;;;;;;10.20;4.93;;;9.40;80.70;;;;;;4848945;29;20503;-93
2023/11/11 06:41:41;;;;;;;12.38;4.93;;;9.40;80.60;;;;;;4864337;29;20079;-92
2023/11/11 06:44:09;;;;;;;11.02;5.88;;;9.50;80.50;;;;;;4864598;29;20052;-93
2023/11/11 06:46:40;;;;;;;11.55;6.22;;;9.50;80.40;;;;;;4864847;29;20101;-93
2023/11/11 06:49:08;;;;;;;17.10;8.47;;;9.50;80.50;;;;;;4865057;29;20055;-93
2023/11/11 06:51:35;;;;;;;33.50;15.25;;;9.50;80.40;;;;;;4849726;29;20148;-93
2023/11/11 06:54:04;;;;;;;29.83;15.05;;;9.50;80.50;;;;;;4849945;29;20069;-93
2023/11/11 06:56:31;;;;;;;22.58;10.30;;;9.50;80.50;;;;;;4867788;29;20053;-92
2023/11/11 06:58:58;;;;;;;22.75;10.38;;;9.50;80.50;;;;;;4867434;29;20049;-93
2023/11/11 07:01:25;;;;;;;15.20;8.60;;;9.50;80.50;;;;;;4852052;29;20140;-94
2023/11/11 07:03:52;;;;;;;17.50;7.10;;;9.50;80.40;;;;;;4875750;29;20053;-92
2023/11/11 07:06:22;;;;;;;16.25;8.05;;;9.50;80.20;;;;;;4885982;29;20452;-92
2023/11/11 07:08:50;;;;;;;20.75;7.90;;;9.50;80.50;;;;;;4885685;29;20052;-92
2023/11/11 07:11:18;;;;;;;18.17;9.30;;;9.50;80.90;;;;;;4885729;29;20143;-92
2023/11/11 07:13:47;;;;;;;18.47;11.00;;;9.50;80.60;;;;;;4885858;29;20047;-91
2023/11/11 07:16:17;;;;;;;18.00;9.45;;;9.50;80.60;;;;;;4870169;29;20503;-92
2023/11/11 07:18:44;;;;;;;19.60;10.45;;;9.50;80.70;;;;;;4885560;29;20530;-92
2023/11/11 07:21:24;;;;;;;26.92;16.02;;;9.50;80.80;;;;;;4885844;29;20101;-92
2023/11/11 07:23:52;;;;;;;20.52;11.88;;;9.50;80.80;;;;;;4870643;29;20077;-93
2023/11/11 07:26:20;;;;;;;23.77;11.47;;;9.50;80.80;;;;;;4871008;29;20575;-93
2023/11/11 07:28:48;;;;;;;26.63;15.57;;;9.50;80.60;;;;;;4885630;29;20059;-93
2023/11/11 07:31:17;;;;;;;24.38;12.93;;;9.50;80.70;;;;;;4855903;29;20064;-93
2023/11/11 07:33:45;;;;;;;22.55;11.98;;;9.50;80.70;;;;;;4851525;29;20105;-93
2023/11/11 07:36:12;;;;;;;24.15;13.98;;;9.50;80.50;;;;;;4867280;29;20407;-94
2023/11/11 07:38:41;;;;;;;21.90;13.03;;;9.50;80.80;;;;;;4866536;29;20053;-94
2023/11/11 07:41:09;;;;;;;18.83;10.55;;;9.60;80.80;;;;;;4851607;29;20081;-95
2023/11/11 07:43:36;;;;;;;23.77;12.55;;;9.60;80.60;;;;;;4867600;29;20567;-95
2023/11/11 07:46:06;;;;;;;19.98;10.45;;;9.70;80.70;;;;;;4872920;29;20139;-94
2023/11/11 07:48:33;;;;;;;17.80;9.20;;;9.60;80.60;;;;;;4862386;29;20052;-92
2023/11/11 07:51:05;;;;;;;18.50;9.10;;;9.70;80.10;;;;;;4870193;29;20055;-94
2023/11/11 07:53:32;;;;;;;21.15;10.77;;;9.70;80.10;;;;;;4876951;29;20078;-92
2023/11/11 07:56:02;;;;;;;21.88;11.13;;;9.80;79.90;;;;;;4857807;29;20052;-92
2023/11/11 07:58:30;;;;;;;21.67;10.90;;;9.70;79.90;;;;;;4868870;29;20104;-94
2023/11/11 08:01:03;;;;;;;21.05;11.57;;;9.80;79.80;;;;;;4867332;29;20059;-95
2023/11/11 08:03:34;;;;;;;21.57;11.97;;;9.80;79.80;;;;;;4866500;29;20091;-96
2023/11/11 08:06:02;;;;;;;21.80;11.68;;;9.80;79.90;;;;;;4875615;29;20514;-94
2023/11/11 08:08:29;;;;;;;19.77;10.50;;;9.70;79.90;;;;;;4865351;29;20052;-93
2023/11/11 08:10:57;;;;;;;21.40;11.27;;;9.70;79.80;;;;;;4875795;29;20427;-93
2023/11/11 08:13:24;;;;;;;19.73;10.73;;;9.70;79.80;;;;;;4860507;29;20050;-93
2023/11/11 08:15:52;;;;;;;17.93;9.10;;;9.70;79.70;;;;;;4851732;29;20045;-96
2023/11/11 08:18:20;;;;;;;18.80;10.20;;;9.60;79.80;;;;;;4851919;29;20045;-96
2023/11/11 08:20:48;;;;;;;19.20;9.38;;;9.60;80.00;;;;;;4851264;29;20148;-96
2023/11/11 08:23:15;;;;;;;19.67;10.18;;;9.60;80.00;;;;;;4850811;29;20408;-95
2023/11/11 08:25:42;;;;;;;18.42;9.32;;;9.60;80.10;;;;;;4866174;29;20049;-95
2023/11/11 08:28:10;;;;;;;19.77;10.37;;;9.60;80.30;;;;;;4882312;29;20123;-94
2023/11/11 08:30:37;;;;;;;18.58;9.70;;;9.60;80.30;;;;;;4884490;29;20048;-95
2023/11/11 08:33:04;;;;;;;20.48;9.80;;;9.70;80.20;;;;;;4878835;29;20052;-94
2023/11/11 08:35:32;;;;;;;19.17;10.13;;;9.80;80.00;;;;;;4869097;29;20104;-95
2023/11/11 08:38:00;;;;;;;22.58;10.80;;;9.80;79.60;;;;;;4867457;29;20542;-94
2023/11/11 08:40:27;;;;;;;23.30;11.50;;;9.80;79.50;;;;;;4871628;29;20048;-94
2023/11/11 08:42:55;;;;;;;17.85;9.48;;;9.80;79.80;;;;;;4851723;29;20045;-95
2023/11/11 08:45:22;;;;;;;20.42;10.68;;;9.80;79.70;;;;;;4874444;29;20139;-94
2023/11/11 08:47:49;;;;;;;24.92;12.45;;;9.70;79.50;;;;;;4866648;29;20076;-94
2023/11/11 08:50:19;;;;;;;20.00;10.32;;;9.80;79.90;;;;;;4858348;29;20048;-93
2023/11/11 08:52:49;;;;;;;18.63;9.70;;;9.80;79.50;;;;;;4881299;29;20507;-94
2023/11/11 08:55:18;;;;;;;19.98;9.88;;;9.80;79.10;;;;;;4881098;29;20108;-93
2023/11/11 08:57:45;;;;;;;17.73;9.38;;;9.80;79.40;;;;;;4866456;29;20049;-92
2023/11/11 09:00:12;;;;;;;18.35;9.38;;;9.70;78.90;;;;;;4856448;29;20048;-90
2023/11/11 09:02:40;;;;;;;22.50;9.70;;;9.70;78.70;;;;;;4871800;29;20097;-90
2023/11/11 09:05:07;;;;;;;17.53;9.37;;;9.70;78.00;;;;;;4874368;29;20049;-90
2023/11/11 09:07:34;;;;;;;14.88;7.70;;;9.60;78.20;;;;;;4864736;29;20045;-90
2023/11/11 09:10:05;;;;;;;14.98;8.10;;;9.60;78.40;;;;;;4853632;29;20052;-92
2023/11/11 09:12:33;;;;;;;15.82;6.80;;;9.60;77.70;;;;;;4858107;29;20046;-92
2023/11/11 09:15:00;;;;;;;13.77;6.90;;;9.70;77.90;;;;;;4871749;29;20049;-92
2023/11/11 09:17:27;;;;;;;16.20;7.37;;;9.80;76.90;;;;;;4872500;29;20093;-92
2023/11/11 09:19:54;;;;;;;14.25;7.13;;;9.80;76.70;;;;;;4868796;29;20124;-91
2023/11/11 09:22:21;;;;;;;14.68;7.53;;;9.80;76.30;;;;;;4873283;29;20040;-91
2023/11/11 09:24:51;;;;;;;15.43;7.78;;;9.90;76.30;;;;;;4858893;29;20102;-92
2023/11/11 09:27:19;;;;;;;16.38;8.07;;;9.80;76.90;;;;;;4858322;29;20049;-91
2023/11/11 09:29:46;;;;;;;17.67;8.80;;;9.70;77.50;;;;;;4872397;29;20392;-90
2023/11/11 09:32:13;;;;;;;16.05;8.65;;;9.70;77.70;;;;;;4873618;29;20045;-91
2023/11/11 09:34:45;;;;;;;16.42;8.35;;;9.70;77.40;;;;;;4874112;29;20052;-92
2023/11/11 09:40:36;;;;;;;18.15;8.68;;;9.70;77.10;;;;;;4888881;29;20108;-91
2023/11/11 09:43:04;;;;;;;18.80;8.73;;;9.70;77.20;;;;;;4863439;29;20044;-90
2023/11/11 09:45:31;;;;;;;17.35;9.48;;;9.80;77.50;;;;;;4874307;29;20508;-90
2023/11/11 09:48:00;;;;;;;16.67;8.82;;;9.90;77.90;;;;;;4871580;29;20508;-90
2023/11/11 09:50:31;;;;;;;20.88;8.82;;;9.90;77.40;;;;;;4869126;29;20045;-91
2023/11/11 09:53:32;;;;;;;17.10;8.07;;;;;;;;;;4854723;29;20144;-90
2023/11/11 09:56:37;;;;;;;19.30;8.93;;;10.00;77.30;;;;;;4878900;29;20085;-90
2023/11/11 09:59:08;;;;;;;17.30;8.32;;;10.00;77.00;;;;;;4858589;29;20140;-89
2023/11/11 10:01:40;;;;;;;18.00;8.23;;;10.10;77.10;;;;;;4866528;29;20049;-90
2023/11/11 10:04:11;;;;;;;18.58;8.93;;;10.10;77.30;;;;;;4867796;29;20063;-89
2023/11/11 10:06:39;;;;;;;17.73;8.55;;;10.20;78.20;;;;;;4853269;29;20053;-89
2023/11/11 10:09:09;;;;;;;17.07;8.73;;;10.20;77.00;;;;;;4856613;29;20057;-89
2023/11/11 10:11:37;;;;;;;20.10;9.15;;;10.30;77.10;;;;;;4876826;29;20104;-89
2023/11/11 10:14:04;;;;;;;18.48;9.60;;;10.40;77.20;;;;;;4869961;29;20108;-90
2023/11/11 10:16:32;;;;;;;17.15;8.98;;;10.40;77.00;;;;;;4871334;29;20136;-89
2023/11/11 10:18:59;;;;;;;19.33;8.68;;;10.40;75.20;;;;;;4870394;29;20535;-89
2023/11/11 10:21:26;;;;;;;17.47;8.07;;;10.40;74.10;;;;;;4858032;29;20516;-90
2023/11/11 10:23:57;;;;;;;20.20;9.63;;;10.50;73.60;;;;;;4867580;29;20115;-89
2023/11/11 10:26:28;;;;;;;18.05;9.38;;;10.40;73.70;;;;;;4851015;29;20105;-90
2023/11/11 10:28:59;;;;;;;18.38;9.43;;;10.50;73.70;;;;;;4866733;29;20037;-90
2023/11/11 10:31:35;;;;;;;18.83;9.35;;;10.50;74.10;;;;;;4864437;29;20055;-88
2023/11/11 10:34:03;;;;;;;17.50;8.10;;;10.60;74.50;;;;;;4877166;29;20108;-93
2023/11/11 10:36:41;;;;;;;18.80;9.07;;;10.70;73.60;;;;;;4881849;29;20100;-89
2023/11/11 10:39:12;;;;;;;15.93;8.20;;;10.60;73.30;;;;;;4874824;29;20044;-89
2023/11/11 10:41:39;;;;;;;16.33;8.63;;;10.60;72.90;;;;;;4875576;29;20100;-89
2023/11/11 10:44:07;;;;;;;14.93;7.88;;;10.50;73.50;;;;;;4875121;29;20048;-90
2023/11/11 10:46:39;;;;;;;20.00;9.83;;;10.50;73.70;;;;;;4870773;29;20528;-90
2023/11/11 10:49:10;;;;;;;19.13;9.85;;;10.50;74.10;;;;;;4859020;29;20057;-88
2023/11/11 10:51:40;;;;;;;17.67;9.15;;;10.60;75.40;;;;;;4873410;29;20056;-89
2023/11/11 10:54:08;;;;;;;17.75;9.15;;;10.50;75.50;;;;;;4878215;29;20119;-89
2023/11/11 10:56:40;;;;;;;20.42;10.05;;;10.60;76.10;;;;;;4863603;29;20041;-89
2023/11/11 10:59:07;;;;;;;22.27;10.70;;;10.60;76.20;;;;;;4859598;29;20060;-89
2023/11/11 11:01:35;;;;;;;36.00;21.08;;;10.50;74.90;;;;;;4857231;29;20495;-88
2023/11/11 11:04:04;;;;;;;21.90;11.02;;;10.50;74.50;;;;;;4879340;29;20052;-88
2023/11/11 11:06:45;;;;;;;24.23;11.05;;;10.50;74.90;;;;;;4873325;29;20100;-90
2023/11/11 11:09:34;;;;;;;21.88;10.90;;;10.50;75.60;;;;;;4879115;29;20048;-88
2023/11/11 11:12:06;;;;;;;20.03;9.63;;;10.50;75.70;;;;;;4873027;29;20062;-89
2023/11/11 11:14:47;;;;;;;18.23;9.52;;;10.40;76.40;;;;;;4876356;29;20057;-89
2023/11/11 11:17:15;;;;;;;18.38;9.32;;;10.30;76.80;;;;;;4876247;29;20053;-88
2023/11/11 11:20:04;;;;;;;18.15;8.43;;;10.20;76.40;;;;;;4875541;29;20052;-88
2023/11/11 11:22:37;;;;;;;21.95;9.70;;;10.20;76.20;;;;;;4867955;29;20056;-93
2023/11/11 11:25:36;;;;;;;17.80;10.17;;;10.20;75.90;;;;;;4873455;29;20052;-94
2023/11/11 11:28:10;;;;;;;19.27;9.18;;;10.30;76.50;;;;;;4858871;29;20144;-89
2023/11/11 11:30:54;;;;;;;19.95;9.80;;;10.20;76.20;;;;;;4859442;29;20045;-89
2023/11/11 11:33:26;;;;;;;19.13;9.10;;;10.40;76.30;;;;;;4857877;29;20077;-91
2023/11/11 11:35:56;;;;;;;19.92;10.32;;;10.40;76.90;;;;;;4877584;29;20116;-89
2023/11/11 11:38:34;;;;;;;20.33;10.20;;;10.40;76.90;;;;;;4876657;29;20128;-90
2023/11/11 11:41:09;;;;;;;19.10;9.98;;;10.40;76.50;;;;;;4861396;29;20060;-93
2023/11/11 11:43:39;;;;;;;18.05;9.40;;;10.50;76.60;;;;;;4856322;29;20056;-89
2023/11/11 11:46:07;;;;;;;18.33;9.48;;;10.50;76.30;;;;;;4868654;29;20052;-90
2023/11/11 11:48:36;;;;;;;16.70;8.93;;;10.50;76.50;;;;;;4879354;29;20087;-87
2023/11/11 11:51:08;;;;;;;17.13;9.00;;;10.50;76.30;;;;;;4868137;29;20068;-93
2023/11/11 11:53:36;;;;;;;15.93;7.15;;;10.50;76.20;;;;;;4859207;29;20049;-92
2023/11/11 11:56:10;;;;;;;15.20;7.30;;;10.50;74.80;;;;;;4869149;29;20440;-88
2023/11/11 11:58:48;;;;;;;15.80;7.82;;;10.50;74.70;;;;;;4861391;29;20096;-88
2023/11/11 12:01:37;;;;;;;16.70;8.27;;;10.50;74.70;;;;;;4860545;29;20143;-88
2023/11/11 12:04:04;;;;;;;15.80;7.47;;;10.50;75.20;;;;;;4870749;29;20048;-88
2023/11/11 12:06:39;;;;;;;17.55;8.52;;;10.50;74.60;;;;;;4863674;29;20041;-88
2023/11/11 12:09:09;;;;;;;16.58;7.47;;;10.50;75.30;;;;;;4854070;29;20053;-88
2023/11/11 12:11:37;;;;;;;15.70;7.10;;;10.50;75.30;;;;;;4874020;29;20041;-88
2023/11/11 12:14:09;;;;;;;14.90;7.55;;;10.60;74.20;;;;;;4875574;29;20096;-89
2023/11/11 12:16:52;;;;;;;14.50;7.17;;;10.70;73.80;;;;;;4851995;29;20102;-91
2023/11/11 12:19:27;;;;;;;16.05;7.40;;;10.60;73.50;;;;;;4854015;29;20085;-89
2023/11/11 12:21:54;;;;;;;15.45;7.28;;;;;;;;;;4853282;29;20056;-89
2023/11/11 12:24:26;;;;;;;15.52;7.75;;;;;;;;;;4851719;29;20045;-90
2023/11/11 12:26:54;;;;;;;16.42;7.85;;;;;;;;;;4870278;29;20041;-90
2023/11/11 12:29:23;;;;;;;16.83;8.23;;;10.70;74.20;;;;;;4869143;29;20104;-90
2023/11/11 12:31:54;;;;;;;16.52;7.80;;;10.70;74.20;;;;;;4870828;29;20053;-89
2023/11/11 12:34:23;;;;;;;16.42;7.97;;;10.80;73.50;;;;;;4856673;29;20072;-93
2023/11/11 12:36:52;;;;;;;15.90;7.97;;;10.80;72.80;;;;;;4852521;29;20049;-92
2023/11/11 12:39:20;;;;;;;16.45;8.35;;;10.90;72.40;;;;;;4868719;29;20089;-88
2023/11/11 12:41:52;;;;;;;17.77;8.33;;;10.90;72.70;;;;;;4870874;29;20092;-89
2023/11/11 12:44:20;;;;;;;15.32;7.68;;;10.90;72.90;;;;;;4873166;29;20051;-92
2023/11/11 12:46:50;;;;;;;17.30;7.90;;;10.90;73.50;;;;;;4856857;29;20046;-90
2023/11/11 12:49:27;;;;;;;18.60;8.70;;;11.00;73.20;;;;;;4853885;29;20137;-91
2023/11/11 12:51:58;;;;;;;17.15;7.35;;;10.90;73.10;;;;;;4857588;29;20098;-90
2023/11/11 12:54:32;;;;;;;17.37;8.00;;;10.90;73.40;;;;;;4853413;29;20496;-93
2023/11/11 12:57:01;;;;;;;17.63;8.73;;;11.00;73.10;;;;;;4852944;29;21364;-92
2023/11/11 12:59:28;;;;;;;16.05;8.82;;;10.90;72.70;;;;;;4850260;29;20097;-91